Time;durP1;ratioP1;P1;durP2;ratioP2;P2;SDS_P1;SDS_P2;PMS_P1;PMS_P2;Temp;Humidity;BMP_temperature;BMP_pressure;BME280_temperature;BME280_humidity;BME280_pressure;Samples;Min_cycle;Max_cycle;Signal;HPM_P1;HPM_P2
2021/10/03 00:06:58;;;;;;;30.9;26;;;;;;;6.62;100;98836.48;;;;
2021/10/03 00:16:57;;;;;;;30.1;25.1;;;;;;;6.55;100;98826.08;;;;
2021/10/03 00:26:56;;;;;;;27.3;23;;;;;;;6.51;100;98823.15;;;;
2021/10/03 00:36:54;;;;;;;32.2;24.1;;;;;;;6.49;100;98819.16;;;;
2021/10/03 00:46:53;;;;;;;35.2;28.7;;;;;;;6.45;100;98802.03;;;;
2021/10/03 00:56:52;;;;;;;26.5;21.2;;;;;;;6.35;100;98810.11;;;;
2021/10/03 01:06:51;;;;;;;34.7;19.6;;;;;;;6.33;100;98812.24;;;;
2021/10/03 01:16:49;;;;;;;28.5;19.5;;;;;;;6.17;100;98808.84;;;;
2021/10/03 01:26:48;;;;;;;23.9;19.3;;;;;;;5.94;100;98793.38;;;;
2021/10/03 01:36:46;;;;;;;22.9;20.5;;;;;;;5.86;100;98793.95;;;;
2021/10/03 01:46:45;;;;;;;22.2;19.7;;;;;;;5.86;100;98781.38;;;;
2021/10/03 01:56:43;;;;;;;21;18.7;;;;;;;5.71;100;98773.36;;;;
2021/10/03 02:06:42;;;;;;;25.2;18.9;;;;;;;5.52;100;98774.98;;;;
2021/10/03 02:16:40;;;;;;;28.2;18.8;;;;;;;5.4;100;98766.45;;;;
2021/10/03 02:26:39;;;;;;;26.4;21.7;;;;;;;5.19;100;98748.84;;;;
2021/10/03 02:36:38;;;;;;;24.5;19.7;;;;;;;5.18;100;98758.72;;;;
2021/10/03 02:46:36;;;;;;;17;14.9;;;;;;;5.15;100;98731.73;;;;
2021/10/03 02:56:35;;;;;;;20.1;16.1;;;;;;;5.06;100;98732.3;;;;
2021/10/03 03:06:34;;;;;;;16.8;12.9;;;;;;;4.91;100;98718.94;;;;
2021/10/03 03:16:34;;;;;;;19.9;18.1;;;;;;;4.84;100;98710.39;;;;
2021/10/03 03:26:34;;;;;;;32.1;25.3;;;;;;;4.71;100;98713.59;;;;
2021/10/03 03:36:29;;;;;;;23;19.4;;;;;;;4.58;100;98704.22;;;;
2021/10/03 03:46:27;;;;;;;17;14.4;;;;;;;4.48;100;98708.75;;;;
2021/10/03 03:56:26;;;;;;;20.9;15.5;;;;;;;4.42;100;98710.62;;;;
2021/10/03 04:06:24;;;;;;;20.6;15;;;;;;;4.35;100;98717.27;;;;
2021/10/03 04:16:23;;;;;;;19.1;16;;;;;;;4.28;100;98730.86;;;;
2021/10/03 04:26:21;;;;;;;18.1;16.3;;;;;;;4.24;100;98726.3;;;;
2021/10/03 04:36:20;;;;;;;23.6;18.3;;;;;;;4.16;100;98732.97;;;;
2021/10/03 04:46:18;;;;;;;17.1;15.3;;;;;;;4.06;100;98724.94;;;;
2021/10/03 04:56:17;;;;;;;21.1;18.8;;;;;;;4.03;100;98723.58;;;;
2021/10/03 05:06:15;;;;;;;26.2;18.2;;;;;;;4.18;100;98738.84;;;;
2021/10/03 05:16:14;;;;;;;21.8;18.9;;;;;;;4.24;100;98729.77;;;;
2021/10/03 05:26:12;;;;;;;24.8;19.1;;;;;;;4.54;100;98731.73;;;;
2021/10/03 05:36:10;;;;;;;19.4;16.2;;;;;;;4.72;100;98717.07;;;;
2021/10/03 05:46:09;;;;;;;23.7;18;;;;;;;4.99;100;98725.62;;;;
2021/10/03 05:56:07;;;;;;;19.7;15.7;;;;;;;5.35;100;98724.5;;;;
2021/10/03 06:06:06;;;;;;;19.5;17;;;;;;;5.76;100;98725.19;;;;
2021/10/03 06:16:04;;;;;;;17.8;15.5;;;;;;;6.07;100;98731.28;;;;
2021/10/03 06:26:03;;;;;;;19.6;17.6;;;;;;;6.53;100;98721.11;;;;
2021/10/03 06:36:02;;;;;;;21.9;17.2;;;;;;;6.99;100;98724.27;;;;
2021/10/03 06:46:00;;;;;;;24;17.9;;;;;;;7.41;100;98732.47;;;;
2021/10/03 06:56:00;;;;;;;22.9;19.7;;;;;;;7.81;100;98731.23;;;;
2021/10/03 07:05:58;;;;;;;24.3;19.8;;;;;;;8.51;100;98716.14;;;;
2021/10/03 07:15:57;;;;;;;22.2;17;;;;;;;9.14;100;98714.9;;;;
2021/10/03 07:25:56;;;;;;;17.5;13.8;;;;;;;9.75;100;98726.19;;;;
2021/10/03 07:35:55;;;;;;;17;13.5;;;;;;;10.2;100;98724.51;;;;
2021/10/03 07:45:54;;;;;;;18.6;13.7;;;;;;;10.73;100;98732.75;;;;
2021/10/03 07:55:53;;;;;;;20;12.3;;;;;;;11.3;100;98731.11;;;;
2021/10/03 08:05:52;;;;;;;14;12.5;;;;;;;11.98;100;98737.97;;;;
2021/10/03 08:15:52;;;;;;;21.8;12.9;;;;;;;12.65;100;98741.15;;;;
2021/10/03 08:25:52;;;;;;;15.4;12.2;;;;;;;13.24;100;98741.48;;;;
2021/10/03 08:35:51;;;;;;;16.5;13.4;;;;;;;13.59;100;98732.97;;;;
2021/10/03 08:45:50;;;;;;;10.8;9.7;;;;;;;13.94;100;98720.09;;;;
2021/10/03 08:55:51;;;;;;;12.4;9.6;;;;;;;14.56;100;98716.72;;;;
2021/10/03 09:05:50;;;;;;;12.8;10.8;;;;;;;15.2;100;98716.36;;;;
2021/10/03 09:15:49;;;;;;;18;8.8;;;;;;;15.49;100;98718.94;;;;
2021/10/03 09:25:49;;;;;;;8.4;7;;;;;;;15.89;100;98716.41;;;;
2021/10/03 09:35:49;;;;;;;8.3;6.6;;;;;;;16.32;100;98715.82;;;;
2021/10/03 09:45:49;;;;;;;7;5;;;;;;;16.83;100;98693.31;;;;
2021/10/03 09:55:49;;;;;;;13.9;5;;;;;;;17.1;100;98678.11;;;;
2021/10/03 10:05:49;;;;;;;7.5;4.4;;;;;;;17.9;100;98664.22;;;;
2021/10/03 10:15:49;;;;;;;10.6;3.8;;;;;;;18.45;100;98660.41;;;;
2021/10/03 10:25:54;;;;;;;6.6;3.6;;;;;;;18.84;100;98653.06;;;;
2021/10/03 10:35:50;;;;;;;11.5;4.3;;;;;;;19.14;100;98642.3;;;;
2021/10/03 10:45:50;;;;;;;6.7;4.6;;;;;;;19.23;100;98627.25;;;;
2021/10/03 10:55:49;;;;;;;7.1;4.1;;;;;;;19.36;100;98625.95;;;;
2021/10/03 11:05:50;;;;;;;8.2;4.8;;;;;;;19.46;99.03418;98614.43;;;;
2021/10/03 11:15:50;;;;;;;8.3;4;;;;;;;19.17;97.96289;98606.85;;;;
2021/10/03 11:25:50;;;;;;;6;3;;;;;;;19.84;100;98602.53;;;;
2021/10/03 11:35:50;;;;;;;7.2;3.6;;;;;;;19.86;98.02148;98602.16;;;;
2021/10/03 11:45:51;;;;;;;6.2;3.5;;;;;;;20;100;98594.95;;;;
2021/10/03 11:55:51;;;;;;;7.2;4;;;;;;;20.04;100;98584.05;;;;
2021/10/03 12:05:51;;;;;;;5;2.6;;;;;;;20.45;100;98577.59;;;;
2021/10/03 12:15:52;;;;;;;6.7;3.2;;;;;;;20.48;98.98438;98568.63;;;;
2021/10/03 12:25:53;;;;;;;6.8;3.4;;;;;;;20.99;99.9707;98568.81;;;;
2021/10/03 12:35:53;;;;;;;8.6;4.1;;;;;;;21.04;100;98543.8;;;;
2021/10/03 12:45:53;;;;;;;8.5;4.1;;;;;;;20.93;100;98536.66;;;;
2021/10/03 12:55:53;;;;;;;5.2;3.1;;;;;;;21.39;100;98537.08;;;;
2021/10/03 13:05:54;;;;;;;7.3;3.9;;;;;;;21.86;100;98528.8;;;;
2021/10/03 13:15:55;;;;;;;5.1;3.9;;;;;;;22.2;100;98526.64;;;;
2021/10/03 13:25:55;;;;;;;7.3;4;;;;;;;22.01;100;98516.73;;;;
2021/10/03 13:35:57;;;;;;;4.8;2.8;;;;;;;22.01;100;98513.2;;;;
2021/10/03 13:45:57;;;;;;;8;3.9;;;;;;;22.07;100;98512.45;;;;
2021/10/03 13:55:57;;;;;;;8.4;3.3;;;;;;;22.25;100;98501.55;;;;
2021/10/03 14:05:58;;;;;;;6.5;3.7;;;;;;;22.1;100;98499.94;;;;
2021/10/03 14:15:58;;;;;;;6.4;3.4;;;;;;;22.12;100;98486.59;;;;
2021/10/03 14:25:59;;;;;;;7.1;3.6;;;;;;;21.52;100;98476.05;;;;
2021/10/03 14:36:00;;;;;;;5.1;2.8;;;;;;;21.9;100;98484.95;;;;
2021/10/03 14:46:00;;;;;;;6.7;3.1;;;;;;;21.38;100;98483.42;;;;
2021/10/03 14:56:01;;;;;;;7.1;3.7;;;;;;;21.34;100;98493.57;;;;
2021/10/03 15:06:01;;;;;;;11.9;4.4;;;;;;;21.03;100;98486.64;;;;
2021/10/03 15:16:02;;;;;;;7.1;3.4;;;;;;;20.82;100;98486.45;;;;
2021/10/03 15:26:02;;;;;;;8.4;4.6;;;;;;;20.59;100;98501.09;;;;
2021/10/03 15:36:02;;;;;;;7.4;3.6;;;;;;;19.93;100;98499.09;;;;
2021/10/03 15:46:03;;;;;;;8.2;4.2;;;;;;;19.41;100;98499.92;;;;
2021/10/03 15:56:03;;;;;;;9.1;5.5;;;;;;;18.86;100;98503.28;;;;
2021/10/03 16:06:03;;;;;;;6.2;4.8;;;;;;;18.18;100;98511.33;;;;
2021/10/03 16:16:03;;;;;;;12.2;4.8;;;;;;;17.56;100;98502.22;;;;
2021/10/03 16:26:03;;;;;;;12.2;5.2;;;;;;;16.9;100;98516.53;;;;
2021/10/03 16:36:03;;;;;;;7;4.3;;;;;;;16.49;100;98519.69;;;;
2021/10/03 16:46:05;;;;;;;10.1;6.1;;;;;;;16.07;100;98536.39;;;;
2021/10/03 16:56:03;;;;;;;8.1;5.9;;;;;;;15.68;100;98544.53;;;;
2021/10/03 17:06:03;;;;;;;11.5;6.6;;;;;;;15.26;100;98538.52;;;;
2021/10/03 17:16:02;;;;;;;9.4;7;;;;;;;14.85;100;98551.14;;;;
2021/10/03 17:26:02;;;;;;;13.7;8.2;;;;;;;14.56;100;98556.7;;;;
2021/10/03 17:36:02;;;;;;;10.4;7.7;;;;;;;14.3;100;98577.81;;;;
2021/10/03 17:46:01;;;;;;;14;7.4;;;;;;;13.88;100;98591.33;;;;
2021/10/03 17:56:01;;;;;;;11.7;6;;;;;;;13.51;100;98579.44;;;;
2021/10/03 18:06:00;;;;;;;10.2;5.9;;;;;;;13.14;100;98599.19;;;;
2021/10/03 18:16:00;;;;;;;12.4;9.7;;;;;;;12.87;100;98616.59;;;;
2021/10/03 18:25:59;;;;;;;7.8;5.4;;;;;;;12.85;100;98621.5;;;;
2021/10/03 18:35:58;;;;;;;9.6;8.2;;;;;;;12.58;100;98621.86;;;;
2021/10/03 18:45:58;;;;;;;11.8;8.7;;;;;;;12.36;100;98630.92;;;;
2021/10/03 18:55:57;;;;;;;10.2;7.2;;;;;;;12.35;100;98623.15;;;;
2021/10/03 19:05:56;;;;;;;11.5;7.5;;;;;;;12.32;100;98640.77;;;;
2021/10/03 19:15:56;;;;;;;8;5.3;;;;;;;12.72;100;98640.62;;;;
2021/10/03 19:25:55;;;;;;;16.2;6.6;;;;;;;13.08;100;98633.7;;;;
2021/10/03 19:35:54;;;;;;;12.2;6.5;;;;;;;13.35;100;98634.46;;;;
2021/10/03 19:45:55;;;;;;;9.9;5.2;;;;;;;13.42;100;98637.46;;;;
2021/10/03 19:55:53;;;;;;;10.2;4.9;;;;;;;13.64;100;98626.36;;;;
2021/10/03 20:05:52;;;;;;;14.1;4.6;;;;;;;13.81;100;98636.33;;;;
2021/10/03 20:15:52;;;;;;;9.4;4.7;;;;;;;14.04;100;98629.48;;;;
2021/10/03 20:25:51;;;;;;;7.2;4.5;;;;;;;13.91;100;98634.05;;;;
2021/10/03 20:35:51;;;;;;;6.5;4.2;;;;;;;13.91;100;98636.75;;;;
2021/10/03 20:45:50;;;;;;;9.8;5;;;;;;;13.69;100;98650.56;;;;
2021/10/03 20:55:50;;;;;;;8.1;4.5;;;;;;;13.3;100;98658.98;;;;
2021/10/03 21:05:49;;;;;;;9.7;4.6;;;;;;;13.27;100;98655.02;;;;
2021/10/03 21:15:49;;;;;;;8.1;4.2;;;;;;;13.36;100;98650.36;;;;
2021/10/03 21:25:48;;;;;;;7.6;3.9;;;;;;;13.41;100;98641.28;;;;
2021/10/03 21:35:48;;;;;;;6.1;4.2;;;;;;;13.42;100;98640.17;;;;
2021/10/03 21:45:47;;;;;;;8.1;5;;;;;;;13.38;100;98634.61;;;;
2021/10/03 21:55:47;;;;;;;6.7;4.6;;;;;;;13.15;100;98632.46;;;;
2021/10/03 22:05:46;;;;;;;7.7;5.4;;;;;;;12.9;100;98629.47;;;;
2021/10/03 22:15:45;;;;;;;9.2;4.8;;;;;;;12.7;100;98624.73;;;;
2021/10/03 22:25:45;;;;;;;9.4;4.7;;;;;;;12.6;100;98611.51;;;;
2021/10/03 22:35:44;;;;;;;7.9;4.4;;;;;;;12.87;100;98618.49;;;;
2021/10/03 22:45:44;;;;;;;6.2;3.8;;;;;;;12.99;100;98610.49;;;;
2021/10/03 22:55:45;;;;;;;5.2;3.5;;;;;;;13.05;100;98612.7;;;;
2021/10/03 23:05:42;;;;;;;8.7;4.7;;;;;;;12.82;100;98605.13;;;;
2021/10/03 23:15:45;;;;;;;10.2;4.8;;;;;;;12.6;100;98597.99;;;;
2021/10/03 23:25:42;;;;;;;8.8;6.2;;;;;;;11.76;100;98617.35;;;;
2021/10/03 23:35:43;;;;;;;9.9;6.7;;;;;;;11.53;100;98619.3;;;;
2021/10/03 23:45:42;;;;;;;11.6;7;;;;;;;11.12;100;98618.81;;;;
2021/10/03 23:55:42;;;;;;;8.1;5.1;;;;;;;10.73;100;98627.62;;;;
